Time;durP1;ratioP1;P1;durP2;ratioP2;P2;SDS_P1;SDS_P2;PMS_P1;PMS_P2;Temp;Humidity;BMP_temperature;BMP_pressure;BME280_temperature;BME280_humidity;BME280_pressure;Samples;Min_cycle;Max_cycle;Signal;HPM_P1;HPM_P2
2022/03/13 00:00:25;;;;;;;9.77;8.77;;;10.60;93.50;;;;;;5049143;28;20525;-46
2022/03/13 00:02:54;;;;;;;8.70;7.70;;;10.60;93.80;;;;;;5053070;28;20829;-46
2022/03/13 00:05:23;;;;;;;11.00;9.40;;;10.60;93.30;;;;;;5069392;28;20465;-47
2022/03/13 00:07:55;;;;;;;10.23;9.03;;;10.60;93.50;;;;;;5068243;28;20456;-46
2022/03/13 00:10:28;;;;;;;12.10;9.00;;;10.60;93.40;;;;;;5069745;28;20458;-48
2022/03/13 00:12:56;;;;;;;11.90;9.13;;;10.60;93.60;;;;;;5073005;28;20489;-47
2022/03/13 00:15:35;;;;;;;12.53;9.17;;;10.60;93.40;;;;;;5070290;28;20474;-48
2022/03/13 00:18:03;;;;;;;11.57;9.37;;;10.60;93.60;;;;;;5073563;28;21016;-46
2022/03/13 00:20:32;;;;;;;10.10;8.87;;;10.60;93.60;;;;;;5054624;28;20470;-49
2022/03/13 00:23:00;;;;;;;8.40;7.60;;;10.60;93.50;;;;;;5061148;28;20474;-47
2022/03/13 00:25:29;;;;;;;9.37;8.30;;;10.60;94.40;;;;;;5072326;28;20472;-48
2022/03/13 00:27:57;;;;;;;12.63;9.50;;;10.60;94.00;;;;;;5073742;28;20434;-46
2022/03/13 00:30:25;;;;;;;10.03;9.03;;;10.60;93.50;;;;;;5072614;28;20486;-47
2022/03/13 00:32:53;;;;;;;13.53;8.90;;;10.60;93.70;;;;;;5068073;28;20489;-49
2022/03/13 00:35:22;;;;;;;12.03;8.80;;;10.60;93.70;;;;;;5072555;28;20484;-48
2022/03/13 00:37:50;;;;;;;12.17;8.97;;;10.60;93.80;;;;;;5071992;28;20437;-45
2022/03/13 00:40:18;;;;;;;10.30;8.00;;;10.60;93.70;;;;;;5072991;28;21000;-48
2022/03/13 00:42:49;;;;;;;9.80;7.90;;;10.60;93.60;;;;;;5073610;28;20453;-49
2022/03/13 00:45:17;;;;;;;12.07;9.20;;;10.60;93.80;;;;;;5071303;28;20545;-48
2022/03/13 00:47:45;;;;;;;11.90;8.20;;;10.60;93.70;;;;;;5069985;28;20436;-49
2022/03/13 00:50:13;;;;;;;7.53;6.80;;;10.60;93.40;;;;;;5073213;28;20469;-49
2022/03/13 00:52:42;;;;;;;11.13;9.20;;;10.60;93.70;;;;;;5063767;28;20465;-47
2022/03/13 00:55:10;;;;;;;10.37;8.77;;;10.60;93.70;;;;;;5071882;28;20454;-48
2022/03/13 00:57:39;;;;;;;10.60;8.77;;;10.60;93.60;;;;;;5073431;28;20553;-47
2022/03/13 01:00:10;;;;;;;11.30;8.50;;;10.60;93.60;;;;;;5055687;28;20469;-49
2022/03/13 01:02:39;;;;;;;11.63;8.53;;;10.60;93.50;;;;;;5073543;28;20458;-47
2022/03/13 01:05:10;;;;;;;10.50;7.80;;;10.60;94.00;;;;;;5072479;28;20469;-49
2022/03/13 01:07:38;;;;;;;11.20;9.30;;;10.60;94.00;;;;;;5070642;28;20446;-47
2022/03/13 01:10:11;;;;;;;7.83;7.03;;;10.60;93.50;;;;;;5072836;28;20655;-48
2022/03/13 01:12:39;;;;;;;9.37;7.53;;;10.60;93.90;;;;;;5072803;28;20545;-49
2022/03/13 01:15:10;;;;;;;8.60;7.27;;;10.60;93.50;;;;;;5061269;28;21044;-48
2022/03/13 01:17:38;;;;;;;10.23;8.37;;;10.50;93.70;;;;;;5053604;28;20447;-48
2022/03/13 01:20:16;;;;;;;8.53;7.60;;;10.50;93.50;;;;;;5067606;28;20485;-47
2022/03/13 01:22:45;;;;;;;9.37;8.40;;;10.60;93.70;;;;;;5061428;28;20519;-48
2022/03/13 01:25:13;;;;;;;8.37;7.57;;;10.50;93.50;;;;;;5071533;28;20472;-47
2022/03/13 01:27:43;;;;;;;9.00;8.07;;;10.50;93.60;;;;;;5073019;28;20438;-49
2022/03/13 01:30:14;;;;;;;8.97;7.97;;;10.50;93.50;;;;;;5071511;28;20545;-48
2022/03/13 01:32:48;;;;;;;10.13;8.73;;;10.50;93.50;;;;;;5072794;28;20454;-47
2022/03/13 01:35:20;;;;;;;10.30;8.27;;;10.50;93.50;;;;;;5071430;28;20497;-46
2022/03/13 01:37:49;;;;;;;9.23;7.90;;;10.50;93.50;;;;;;5068423;28;21011;-49
2022/03/13 01:40:21;;;;;;;9.70;7.90;;;10.50;93.50;;;;;;5072382;28;20511;-47
2022/03/13 01:42:50;;;;;;;9.57;8.20;;;10.50;93.70;;;;;;5072825;28;20840;-46
2022/03/13 01:45:20;;;;;;;12.00;9.00;;;10.50;93.50;;;;;;5061756;28;20524;-47
2022/03/13 01:47:49;;;;;;;12.30;9.10;;;10.50;93.40;;;;;;5068749;28;20424;-47
2022/03/13 01:50:18;;;;;;;9.27;7.93;;;10.50;93.30;;;;;;5071970;28;20595;-49
2022/03/13 01:52:49;;;;;;;10.30;9.10;;;10.50;93.60;;;;;;5061227;28;20499;-49
2022/03/13 01:55:17;;;;;;;10.53;8.30;;;10.50;93.60;;;;;;5071421;28;20484;-49
2022/03/13 01:57:47;;;;;;;13.40;6.97;;;10.50;93.50;;;;;;5072206;28;20430;-48
2022/03/13 02:00:19;;;;;;;7.43;6.73;;;10.50;93.70;;;;;;5052626;28;20473;-44
2022/03/13 02:02:49;;;;;;;7.33;6.50;;;10.50;93.90;;;;;;5071338;28;20794;-46
2022/03/13 02:05:34;;;;;;;7.87;7.13;;;10.50;94.00;;;;;;5071488;28;20710;-47
2022/03/13 02:08:12;;;;;;;10.30;6.60;;;10.50;94.00;;;;;;5069144;28;20434;-48
2022/03/13 02:10:40;;;;;;;8.90;8.00;;;10.50;94.10;;;;;;5072129;28;20488;-47
2022/03/13 02:13:11;;;;;;;7.37;6.17;;;10.50;94.00;;;;;;5070705;28;20454;-47
2022/03/13 02:15:39;;;;;;;10.40;8.40;;;10.50;93.90;;;;;;5068901;28;20620;-48
2022/03/13 02:18:09;;;;;;;7.70;6.87;;;10.50;93.90;;;;;;5072214;28;21021;-49
2022/03/13 02:20:41;;;;;;;7.23;6.53;;;10.50;94.00;;;;;;5070305;28;20811;-48
2022/03/13 02:23:20;;;;;;;8.33;6.73;;;10.50;94.10;;;;;;5071819;28;21011;-49
2022/03/13 02:25:49;;;;;;;12.03;6.40;;;10.50;94.10;;;;;;5071300;28;20556;-49
2022/03/13 02:28:20;;;;;;;8.87;7.33;;;10.50;94.00;;;;;;5071587;28;20471;-48
2022/03/13 02:30:49;;;;;;;8.23;6.27;;;10.50;94.00;;;;;;5058361;28;20466;-47
2022/03/13 02:33:19;;;;;;;7.57;6.70;;;10.50;94.00;;;;;;5067499;28;20450;-48
2022/03/13 02:35:52;;;;;;;7.83;7.03;;;10.50;94.20;;;;;;5069520;28;20513;-48
2022/03/13 02:38:22;;;;;;;8.17;7.37;;;10.50;93.90;;;;;;5071761;28;20450;-48
2022/03/13 02:40:50;;;;;;;7.30;6.60;;;10.50;93.80;;;;;;5071561;28;20466;-49
2022/03/13 02:43:18;;;;;;;7.87;6.30;;;10.50;94.00;;;;;;5071906;28;20485;-49
2022/03/13 02:45:47;;;;;;;9.27;7.43;;;10.50;93.90;;;;;;5067185;28;20497;-47
2022/03/13 02:48:16;;;;;;;6.80;6.10;;;10.50;93.60;;;;;;5070828;28;20487;-47
2022/03/13 02:50:44;;;;;;;10.10;7.90;;;10.50;93.80;;;;;;5067396;28;20462;-48
2022/03/13 02:53:15;;;;;;;8.00;6.73;;;10.50;93.70;;;;;;5064052;28;20477;-48
2022/03/13 02:55:45;;;;;;;10.67;8.00;;;10.40;93.80;;;;;;5070686;28;20993;-47
2022/03/13 02:58:14;;;;;;;7.80;7.00;;;10.40;93.50;;;;;;5070481;28;20434;-46
2022/03/13 03:00:45;;;;;;;8.50;7.60;;;10.40;93.60;;;;;;5069531;28;21004;-49
2022/03/13 03:03:17;;;;;;;9.10;8.20;;;10.40;93.40;;;;;;5072608;28;20561;-47
2022/03/13 03:05:45;;;;;;;11.43;8.43;;;10.40;93.50;;;;;;5065521;28;20462;-46
2022/03/13 03:08:14;;;;;;;8.10;6.60;;;10.40;94.00;;;;;;5071188;28;20466;-47
2022/03/13 03:10:43;;;;;;;8.37;7.47;;;10.40;94.20;;;;;;5070215;28;20458;-47
2022/03/13 03:13:15;;;;;;;7.10;6.40;;;10.40;93.70;;;;;;5070414;28;20541;-47
2022/03/13 03:15:43;;;;;;;8.00;6.63;;;10.40;93.90;;;;;;5056464;28;20532;-46
2022/03/13 03:18:11;;;;;;;8.90;7.73;;;10.40;94.10;;;;;;5064041;28;20438;-48
2022/03/13 03:20:40;;;;;;;6.20;5.30;;;10.40;93.70;;;;;;5068401;28;20509;-47
2022/03/13 03:23:09;;;;;;;7.10;6.40;;;10.40;94.00;;;;;;5065749;28;20499;-47
2022/03/13 03:25:38;;;;;;;9.60;6.63;;;10.40;93.90;;;;;;5069280;28;20977;-50
2022/03/13 03:28:06;;;;;;;8.50;7.60;;;10.40;93.80;;;;;;5069182;28;20436;-47
2022/03/13 03:30:35;;;;;;;7.27;6.30;;;10.40;93.50;;;;;;5067692;28;20519;-46
2022/03/13 03:33:05;;;;;;;10.73;6.93;;;10.40;93.70;;;;;;5070780;28;20446;-48
2022/03/13 03:35:34;;;;;;;7.43;6.73;;;10.40;93.90;;;;;;5068336;28;20477;-50
2022/03/13 03:38:03;;;;;;;10.43;8.13;;;10.40;93.80;;;;;;5062777;28;20430;-47
2022/03/13 03:40:32;;;;;;;7.37;6.60;;;10.40;93.60;;;;;;5069916;28;20494;-47
2022/03/13 03:43:03;;;;;;;8.80;7.97;;;10.40;93.90;;;;;;5070746;28;20941;-48
2022/03/13 03:45:32;;;;;;;7.00;6.07;;;10.40;93.70;;;;;;5060764;28;20502;-48
2022/03/13 03:48:02;;;;;;;7.60;6.80;;;10.40;93.70;;;;;;5054834;28;20435;-49
2022/03/13 03:50:32;;;;;;;8.50;7.00;;;10.30;93.80;;;;;;5068832;28;20465;-47
2022/03/13 03:53:00;;;;;;;8.77;7.07;;;10.40;93.70;;;;;;5062614;28;20450;-48
2022/03/13 03:55:28;;;;;;;6.83;6.13;;;10.40;93.80;;;;;;5069579;28;20469;-48
2022/03/13 03:57:57;;;;;;;6.53;5.93;;;10.40;93.90;;;;;;5070385;28;20519;-48
2022/03/13 04:00:25;;;;;;;11.37;6.30;;;10.30;93.80;;;;;;5059054;28;20672;-48
2022/03/13 04:02:54;;;;;;;6.20;5.43;;;10.40;93.90;;;;;;5065373;28;20450;-48
2022/03/13 04:05:24;;;;;;;5.57;5.10;;;10.40;93.90;;;;;;5069322;28;20449;-48
2022/03/13 04:07:52;;;;;;;7.43;6.00;;;10.40;94.00;;;;;;5065488;28;20520;-49
2022/03/13 04:10:20;;;;;;;6.87;6.17;;;10.40;93.80;;;;;;5070193;28;20454;-49
2022/03/13 04:12:48;;;;;;;6.83;6.20;;;10.40;94.00;;;;;;5070125;28;20536;-50
2022/03/13 04:15:16;;;;;;;6.20;5.60;;;10.40;94.10;;;;;;5062696;28;20489;-46
2022/03/13 04:17:48;;;;;;;5.70;5.20;;;10.40;94.10;;;;;;5064793;28;20469;-47
2022/03/13 04:20:16;;;;;;;6.40;5.80;;;10.40;94.10;;;;;;5069316;28;20488;-47
2022/03/13 04:22:45;;;;;;;6.90;5.77;;;10.30;94.20;;;;;;5065316;28;20520;-47
2022/03/13 04:25:15;;;;;;;7.63;6.70;;;10.30;94.10;;;;;;5068841;28;20541;-46
2022/03/13 04:27:44;;;;;;;6.07;5.33;;;10.40;94.10;;;;;;5069708;28;20422;-47
2022/03/13 04:30:13;;;;;;;8.80;6.40;;;10.40;94.10;;;;;;5060467;28;20823;-47
2022/03/13 04:32:41;;;;;;;7.30;6.23;;;10.30;93.80;;;;;;5069267;28;20543;-47
2022/03/13 04:35:09;;;;;;;6.83;6.10;;;10.30;94.00;;;;;;5068863;28;20461;-47
2022/03/13 04:37:37;;;;;;;6.70;6.00;;;10.40;94.00;;;;;;5067659;28;20503;-48
2022/03/13 04:40:09;;;;;;;6.73;6.10;;;10.40;94.00;;;;;;5069047;28;20507;-45
2022/03/13 04:42:37;;;;;;;6.70;5.60;;;10.40;94.20;;;;;;5069432;28;20500;-48
2022/03/13 04:45:06;;;;;;;6.67;5.97;;;10.30;94.20;;;;;;5057226;28;20537;-49
2022/03/13 04:47:35;;;;;;;6.00;5.40;;;10.40;94.30;;;;;;5069142;28;20442;-48
2022/03/13 04:50:04;;;;;;;6.10;5.60;;;10.30;94.10;;;;;;5068621;28;20495;-46
2022/03/13 04:52:32;;;;;;;5.90;5.37;;;10.30;93.90;;;;;;5050938;28;20519;-46
2022/03/13 04:55:00;;;;;;;6.97;6.23;;;10.30;93.70;;;;;;5068439;28;20430;-47
2022/03/13 04:57:29;;;;;;;8.27;6.57;;;10.30;94.00;;;;;;5070547;28;20515;-47
2022/03/13 04:59:58;;;;;;;7.90;7.10;;;10.30;93.90;;;;;;5067136;28;20450;-48
2022/03/13 05:02:26;;;;;;;7.30;5.50;;;10.30;93.80;;;;;;5073401;28;20822;-48
2022/03/13 05:04:55;;;;;;;6.93;5.70;;;10.30;94.10;;;;;;5072048;28;20472;-48
2022/03/13 05:07:24;;;;;;;5.93;5.00;;;10.30;94.00;;;;;;5062141;28;20442;-47
2022/03/13 05:09:53;;;;;;;6.63;5.00;;;10.30;94.20;;;;;;5073027;28;20465;-46
2022/03/13 05:12:26;;;;;;;6.30;5.40;;;10.30;94.40;;;;;;5071118;28;20500;-47
2022/03/13 05:14:56;;;;;;;6.43;5.50;;;10.30;94.50;;;;;;5072033;28;20477;-45
2022/03/13 05:17:24;;;;;;;7.27;5.87;;;10.30;94.40;;;;;;5072745;28;20497;-45
2022/03/13 05:19:52;;;;;;;7.90;6.10;;;10.30;94.10;;;;;;5073326;28;20421;-47
2022/03/13 05:22:20;;;;;;;6.00;5.43;;;10.30;94.20;;;;;;5060587;28;20556;-49
2022/03/13 05:24:47;;;;;;;5.77;5.13;;;10.30;94.30;;;;;;5071951;28;20860;-49
2022/03/13 05:27:15;;;;;;;5.57;5.07;;;10.30;94.20;;;;;;5072635;28;20495;-48
2022/03/13 05:29:44;;;;;;;6.33;5.13;;;10.30;94.30;;;;;;5062427;28;20500;-48
2022/03/13 05:32:13;;;;;;;6.50;5.40;;;10.30;94.30;;;;;;5056365;28;20473;-46
2022/03/13 05:34:42;;;;;;;5.10;4.60;;;10.30;94.40;;;;;;5071554;28;20929;-46
2022/03/13 05:37:10;;;;;;;6.67;5.93;;;10.30;94.40;;;;;;5068285;28;21072;-50
2022/03/13 05:39:38;;;;;;;5.63;5.03;;;10.30;94.50;;;;;;5071548;28;20437;-48
2022/03/13 05:42:06;;;;;;;5.10;4.60;;;10.30;94.40;;;;;;5072100;28;20505;-48
2022/03/13 05:44:35;;;;;;;7.40;5.20;;;10.30;94.50;;;;;;5068569;28;20462;-47
2022/03/13 05:47:04;;;;;;;5.60;4.67;;;10.30;94.40;;;;;;5049245;28;20470;-47
2022/03/13 05:49:34;;;;;;;6.17;5.07;;;10.20;94.40;;;;;;5072874;28;20422;-47
2022/03/13 05:52:03;;;;;;;6.13;5.00;;;10.20;94.50;;;;;;5058340;28;20851;-50
2022/03/13 05:54:31;;;;;;;5.73;5.13;;;10.20;94.40;;;;;;5071400;28;20465;-47
2022/03/13 05:57:04;;;;;;;5.53;4.70;;;10.20;94.40;;;;;;5071663;28;20985;-47
2022/03/13 05:59:33;;;;;;;5.20;4.70;;;10.30;94.60;;;;;;5072222;28;20846;-47
2022/03/13 06:02:02;;;;;;;5.40;4.87;;;10.20;94.60;;;;;;5057934;28;20481;-48
2022/03/13 06:04:34;;;;;;;6.27;5.43;;;10.20;94.60;;;;;;5071375;28;20433;-48
2022/03/13 06:07:04;;;;;;;5.50;5.00;;;10.20;94.50;;;;;;5065138;28;20890;-48
2022/03/13 06:09:32;;;;;;;4.93;4.37;;;10.20;94.40;;;;;;5070669;28;20450;-47
2022/03/13 06:12:00;;;;;;;5.23;4.77;;;10.20;94.50;;;;;;5070197;28;21035;-48
2022/03/13 06:14:28;;;;;;;5.90;5.40;;;10.20;94.50;;;;;;5068651;28;20911;-46
2022/03/13 06:16:56;;;;;;;5.90;5.30;;;10.20;94.50;;;;;;5071567;28;20496;-47
2022/03/13 06:19:24;;;;;;;5.23;4.60;;;10.20;94.40;;;;;;5071094;28;20430;-46
2022/03/13 06:21:54;;;;;;;6.00;5.03;;;10.20;94.50;;;;;;5056693;28;21047;-47
2022/03/13 06:24:23;;;;;;;5.73;4.80;;;10.20;94.60;;;;;;5056990;28;20458;-47
2022/03/13 06:26:51;;;;;;;4.60;3.77;;;10.20;94.50;;;;;;5064215;28;20916;-48
2022/03/13 06:29:20;;;;;;;6.00;5.30;;;10.20;94.50;;;;;;5072021;28;20522;-48
2022/03/13 06:31:48;;;;;;;5.83;5.33;;;10.20;94.50;;;;;;5066113;28;20478;-47
2022/03/13 06:34:16;;;;;;;5.67;5.07;;;10.20;94.40;;;;;;5071511;28;20459;-46
2022/03/13 06:36:46;;;;;;;4.80;4.30;;;10.20;94.20;;;;;;5060111;28;20475;-48
2022/03/13 06:39:16;;;;;;;5.57;4.80;;;10.20;94.20;;;;;;5071040;28;20539;-46
2022/03/13 06:41:44;;;;;;;6.07;5.57;;;10.20;94.20;;;;;;5052462;28;20473;-48
2022/03/13 06:44:12;;;;;;;7.27;6.03;;;10.20;94.10;;;;;;5070264;28;20462;-48
2022/03/13 06:46:40;;;;;;;8.23;6.50;;;10.20;93.90;;;;;;5066363;28;20467;-48
2022/03/13 06:49:09;;;;;;;4.60;4.20;;;10.10;93.90;;;;;;5051697;28;20748;-47
2022/03/13 06:51:40;;;;;;;5.90;5.30;;;10.20;94.20;;;;;;5054128;28;20478;-49
2022/03/13 06:54:08;;;;;;;6.87;5.43;;;10.20;94.10;;;;;;5051143;28;20950;-49
2022/03/13 06:56:40;;;;;;;7.50;5.87;;;10.10;94.00;;;;;;5062567;28;20981;-48
2022/03/13 06:59:08;;;;;;;5.73;5.10;;;10.20;93.90;;;;;;5070726;28;20474;-46
2022/03/13 07:01:37;;;;;;;5.67;5.17;;;10.20;93.90;;;;;;5060082;28;20556;-47
2022/03/13 07:04:06;;;;;;;7.43;5.93;;;10.20;94.00;;;;;;5050954;28;20434;-48
2022/03/13 07:06:34;;;;;;;6.77;6.07;;;10.10;93.50;;;;;;5051368;28;20479;-49
2022/03/13 07:09:03;;;;;;;6.73;6.03;;;10.10;93.60;;;;;;5051073;28;20464;-47
2022/03/13 07:11:34;;;;;;;7.10;6.37;;;10.10;93.50;;;;;;5059718;28;20826;-48
2022/03/13 07:14:11;;;;;;;6.13;5.50;;;10.10;93.30;;;;;;5066472;28;20871;-48
2022/03/13 07:16:39;;;;;;;6.47;5.77;;;10.10;93.50;;;;;;5069150;28;20474;-47
2022/03/13 07:19:07;;;;;;;7.70;6.73;;;10.10;93.70;;;;;;5050836;28;20812;-48
2022/03/13 07:21:37;;;;;;;7.47;6.67;;;10.10;93.50;;;;;;5057885;28;20948;-48
2022/03/13 07:24:06;;;;;;;8.73;6.10;;;10.10;93.50;;;;;;5050525;28;20877;-48
2022/03/13 07:26:34;;;;;;;9.00;6.53;;;10.10;93.40;;;;;;5069925;28;20507;-51
2022/03/13 07:29:02;;;;;;;7.90;6.20;;;10.10;93.50;;;;;;5071095;28;20418;-47
2022/03/13 07:31:32;;;;;;;11.37;6.97;;;10.10;93.40;;;;;;5050937;28;20822;-49
2022/03/13 07:34:01;;;;;;;7.47;6.20;;;10.10;93.40;;;;;;5070396;28;20434;-48
2022/03/13 07:36:29;;;;;;;7.60;6.67;;;10.10;93.40;;;;;;5060720;28;20989;-48
2022/03/13 07:38:57;;;;;;;5.70;5.17;;;10.20;93.30;;;;;;5061653;28;20462;-48
2022/03/13 07:41:29;;;;;;;5.70;5.17;;;10.20;93.20;;;;;;5069330;28;20462;-47
2022/03/13 07:43:57;;;;;;;8.10;6.60;;;10.20;93.00;;;;;;5070693;28;20433;-46
2022/03/13 07:46:25;;;;;;;7.17;6.43;;;10.10;92.70;;;;;;5065606;28;20527;-50
2022/03/13 07:48:55;;;;;;;6.37;5.77;;;10.20;92.80;;;;;;5052419;28;20537;-48
2022/03/13 07:51:23;;;;;;;7.63;6.83;;;10.10;93.00;;;;;;5067702;28;20469;-48
2022/03/13 07:53:51;;;;;;;9.33;6.80;;;10.20;92.30;;;;;;5070696;28;20475;-49
2022/03/13 07:56:20;;;;;;;7.50;6.80;;;10.20;92.50;;;;;;5069594;28;20515;-48
2022/03/13 07:58:48;;;;;;;6.60;5.97;;;10.20;92.70;;;;;;5070432;28;20454;-46
2022/03/13 08:01:16;;;;;;;7.67;5.80;;;10.20;92.80;;;;;;5062567;28;20523;-47
2022/03/13 08:03:45;;;;;;;7.33;6.37;;;10.20;92.50;;;;;;5070005;28;20430;-47
2022/03/13 08:06:14;;;;;;;8.37;6.30;;;10.20;92.70;;;;;;5062412;28;20475;-47
2022/03/13 08:08:42;;;;;;;9.00;6.83;;;10.20;92.30;;;;;;5061670;28;20978;-47
2022/03/13 08:11:11;;;;;;;8.47;7.37;;;10.20;92.10;;;;;;5055134;28;20857;-47
2022/03/13 08:13:39;;;;;;;9.03;7.73;;;10.10;92.00;;;;;;5049556;28;20479;-47
2022/03/13 08:16:07;;;;;;;7.53;6.40;;;10.20;91.80;;;;;;5049345;28;20462;-47
2022/03/13 08:18:36;;;;;;;8.23;7.10;;;10.20;92.10;;;;;;5055891;28;20941;-46
2022/03/13 08:21:04;;;;;;;8.13;7.33;;;10.10;91.90;;;;;;5064524;28;20470;-47
2022/03/13 08:23:34;;;;;;;8.57;7.60;;;10.20;91.50;;;;;;5050468;28;20478;-47
2022/03/13 08:26:02;;;;;;;10.70;7.30;;;10.20;91.90;;;;;;5053781;28;20462;-47
2022/03/13 08:28:31;;;;;;;7.57;6.93;;;10.20;91.90;;;;;;5069975;28;20464;-47
2022/03/13 08:31:03;;;;;;;6.80;6.20;;;10.20;92.00;;;;;;5068196;28;20469;-49
2022/03/13 08:33:32;;;;;;;8.93;7.93;;;10.20;92.30;;;;;;5072499;28;20464;-49
2022/03/13 08:36:00;;;;;;;8.23;7.43;;;10.20;92.30;;;;;;5067335;28;20463;-49
2022/03/13 08:38:28;;;;;;;7.93;5.87;;;10.20;92.30;;;;;;5054074;28;20431;-48
2022/03/13 08:40:58;;;;;;;6.83;6.20;;;10.20;92.80;;;;;;5063309;28;20527;-48
2022/03/13 08:43:26;;;;;;;7.27;6.30;;;10.20;92.90;;;;;;5073469;28;20537;-49
2022/03/13 08:45:54;;;;;;;8.80;6.27;;;10.20;92.80;;;;;;5070468;28;20461;-49
2022/03/13 08:48:23;;;;;;;7.87;6.63;;;10.20;92.70;;;;;;5064937;28;20446;-48
2022/03/13 08:50:51;;;;;;;6.37;5.40;;;10.20;92.70;;;;;;5071013;28;20896;-47
2022/03/13 08:53:20;;;;;;;7.50;6.43;;;10.20;92.80;;;;;;5072629;28;20503;-49
2022/03/13 08:55:49;;;;;;;6.77;6.03;;;10.10;92.90;;;;;;5072664;28;21102;-48
2022/03/13 08:58:18;;;;;;;6.90;6.30;;;10.10;92.90;;;;;;5073180;28;20450;-48
2022/03/13 09:00:50;;;;;;;6.70;6.00;;;10.20;93.00;;;;;;5067625;28;20466;-48
2022/03/13 09:03:19;;;;;;;6.43;5.83;;;10.20;93.00;;;;;;5068090;28;20454;-50
2022/03/13 09:05:48;;;;;;;8.47;6.10;;;10.20;93.10;;;;;;5069264;28;20453;-47
2022/03/13 09:08:16;;;;;;;8.60;5.97;;;10.20;93.10;;;;;;5066906;28;21000;-46
2022/03/13 09:10:45;;;;;;;5.90;5.23;;;10.20;93.30;;;;;;5072751;28;20473;-47
2022/03/13 09:13:13;;;;;;;6.40;5.73;;;10.20;93.40;;;;;;5073574;28;20430;-47
2022/03/13 09:15:43;;;;;;;9.17;6.70;;;10.10;93.50;;;;;;5053960;28;20464;-48
2022/03/13 09:18:11;;;;;;;5.90;5.33;;;10.20;93.50;;;;;;5055563;28;20523;-48
2022/03/13 09:20:39;;;;;;;5.97;4.80;;;10.20;93.70;;;;;;5070610;28;20505;-47
2022/03/13 09:23:10;;;;;;;6.73;5.60;;;10.20;93.80;;;;;;5054583;28;20509;-46
2022/03/13 09:25:40;;;;;;;5.83;5.23;;;10.10;93.80;;;;;;5071593;28;20535;-48
2022/03/13 09:28:09;;;;;;;6.47;5.87;;;10.20;93.90;;;;;;5072163;28;20442;-47
2022/03/13 09:30:38;;;;;;;6.33;5.03;;;10.20;94.00;;;;;;5059940;28;20450;-47
2022/03/13 09:33:08;;;;;;;6.07;5.00;;;10.20;94.00;;;;;;5072402;28;20489;-47
2022/03/13 09:35:37;;;;;;;4.70;4.30;;;10.20;94.00;;;;;;5069499;28;21170;-47
2022/03/13 09:38:07;;;;;;;5.47;4.97;;;10.20;94.00;;;;;;5066308;28;20473;-48
2022/03/13 09:40:37;;;;;;;5.10;4.57;;;10.20;94.00;;;;;;5072741;28;20453;-49
2022/03/13 09:43:05;;;;;;;7.10;5.73;;;10.20;94.50;;;;;;5065325;28;20450;-48
2022/03/13 09:45:34;;;;;;;7.43;5.43;;;10.20;94.00;;;;;;5052823;28;20454;-48
2022/03/13 09:48:04;;;;;;;5.07;4.33;;;10.20;94.10;;;;;;5071620;28;20472;-48
2022/03/13 09:50:34;;;;;;;6.17;5.57;;;10.20;94.10;;;;;;5071678;28;20458;-49
2022/03/13 09:53:03;;;;;;;5.57;5.07;;;10.20;94.10;;;;;;5060005;28;20495;-47
2022/03/13 09:55:31;;;;;;;5.83;4.80;;;10.20;94.10;;;;;;5071670;28;20465;-46
2022/03/13 09:58:00;;;;;;;6.23;5.10;;;10.30;94.10;;;;;;5071631;28;20819;-46
2022/03/13 10:00:28;;;;;;;6.33;5.70;;;10.30;94.10;;;;;;5050566;28;20482;-48
2022/03/13 10:02:57;;;;;;;6.17;4.90;;;10.30;94.10;;;;;;5062144;28;20447;-47
2022/03/13 10:05:27;;;;;;;5.73;5.20;;;10.30;94.10;;;;;;5050640;28;20493;-50
2022/03/13 10:07:59;;;;;;;5.70;5.10;;;10.30;94.10;;;;;;5069511;28;20449;-47
2022/03/13 10:10:30;;;;;;;7.60;5.93;;;10.30;94.10;;;;;;5070910;28;20841;-47
2022/03/13 10:13:02;;;;;;;5.07;4.57;;;10.30;94.10;;;;;;5072531;28;20496;-47
2022/03/13 10:15:41;;;;;;;6.13;5.33;;;10.30;94.10;;;;;;5069473;28;20505;-50
2022/03/13 10:18:14;;;;;;;6.30;5.73;;;10.30;94.10;;;;;;5072294;28;20626;-47
2022/03/13 10:20:43;;;;;;;6.30;5.70;;;10.30;94.10;;;;;;5067998;28;20527;-48
2022/03/13 10:23:18;;;;;;;6.13;5.47;;;10.30;94.10;;;;;;5061427;28;20949;-47
2022/03/13 10:25:49;;;;;;;5.80;5.00;;;10.30;94.10;;;;;;5070250;28;20814;-46
2022/03/13 10:28:23;;;;;;;7.07;6.00;;;10.30;94.20;;;;;;5071577;28;20491;-49
2022/03/13 10:31:07;;;;;;;6.03;5.43;;;10.30;94.20;;;;;;5070729;28;20478;-48
2022/03/13 10:33:58;;;;;;;6.33;5.73;;;10.30;94.20;;;;;;5071566;28;20446;-47
2022/03/13 10:36:34;;;;;;;5.83;5.33;;;10.30;94.20;;;;;;5062809;28;20819;-47
2022/03/13 10:39:11;;;;;;;5.80;5.20;;;10.30;94.20;;;;;;5052371;28;20509;-48
2022/03/13 10:41:44;;;;;;;6.33;5.60;;;10.30;94.30;;;;;;5067622;28;20470;-47
2022/03/13 10:44:15;;;;;;;6.60;5.90;;;10.30;94.30;;;;;;5070380;28;20441;-49
2022/03/13 10:46:44;;;;;;;5.93;5.33;;;10.30;94.40;;;;;;5068864;28;20841;-46
2022/03/13 10:49:13;;;;;;;6.47;5.83;;;10.30;94.40;;;;;;5071593;28;20421;-47
2022/03/13 10:51:46;;;;;;;6.27;4.83;;;10.30;94.40;;;;;;5059782;28;20474;-45
2022/03/13 10:54:31;;;;;;;5.90;5.30;;;10.30;94.40;;;;;;5050615;28;20437;-47
2022/03/13 10:57:08;;;;;;;5.30;4.80;;;10.40;94.50;;;;;;5067474;28;20465;-48
2022/03/13 10:59:37;;;;;;;6.00;5.30;;;10.40;94.50;;;;;;5059754;28;20450;-46
2022/03/13 11:02:13;;;;;;;5.23;4.80;;;10.40;94.60;;;;;;5069849;28;20523;-48
2022/03/13 11:04:50;;;;;;;6.43;5.10;;;10.40;94.60;;;;;;5070273;28;20913;-47
2022/03/13 11:07:20;;;;;;;6.70;6.10;;;10.40;94.60;;;;;;5056002;28;20459;-48
2022/03/13 11:09:50;;;;;;;5.37;4.87;;;10.40;94.60;;;;;;5050972;28;20431;-46
2022/03/13 11:12:20;;;;;;;6.57;5.87;;;10.30;94.60;;;;;;5070412;28;20864;-45
2022/03/13 11:14:49;;;;;;;4.73;4.33;;;10.40;94.70;;;;;;5067222;28;20909;-49
2022/03/13 11:17:19;;;;;;;5.53;5.07;;;10.40;94.70;;;;;;5053898;28;20448;-48
2022/03/13 11:19:50;;;;;;;5.87;5.10;;;10.40;94.80;;;;;;5069453;28;20483;-49
2022/03/13 11:22:21;;;;;;;5.27;4.30;;;10.40;94.80;;;;;;5066922;28;20470;-48
2022/03/13 11:24:53;;;;;;;6.73;5.70;;;10.40;94.80;;;;;;5068411;28;20508;-46
2022/03/13 11:27:24;;;;;;;5.17;4.50;;;10.40;94.90;;;;;;5070191;28;20479;-46
2022/03/13 11:29:55;;;;;;;5.57;5.03;;;10.40;94.90;;;;;;5069301;28;20457;-48
2022/03/13 11:32:40;;;;;;;5.90;4.20;;;10.40;94.80;;;;;;5070120;28;20458;-46
2022/03/13 11:35:24;;;;;;;7.33;4.27;;;10.40;94.90;;;;;;5069678;28;20516;-45
2022/03/13 11:37:55;;;;;;;5.23;4.73;;;10.40;94.80;;;;;;5068426;28;20468;-47
2022/03/13 11:40:34;;;;;;;4.70;4.17;;;10.40;94.80;;;;;;5069968;28;20569;-46
2022/03/13 11:43:13;;;;;;;5.20;4.57;;;10.40;94.80;;;;;;5070771;28;20430;-46
2022/03/13 11:45:43;;;;;;;4.47;4.07;;;10.40;94.70;;;;;;5067150;28;20613;-47
2022/03/13 11:48:42;;;;;;;4.47;4.07;;;10.40;94.70;;;;;;5070593;28;20488;-48
2022/03/13 11:51:17;;;;;;;4.53;4.13;;;10.40;94.60;;;;;;5061456;28;20557;-47
2022/03/13 11:53:48;;;;;;;4.57;3.93;;;10.40;94.40;;;;;;5050723;28;20423;-48
2022/03/13 11:56:27;;;;;;;4.40;3.67;;;10.50;94.30;;;;;;5063201;28;20469;-47
2022/03/13 11:59:01;;;;;;;4.30;3.90;;;10.50;94.30;;;;;;5061905;28;20458;-47
2022/03/13 12:01:37;;;;;;;4.13;3.73;;;10.40;94.50;;;;;;5067290;28;20887;-48
2022/03/13 12:04:25;;;;;;;5.50;3.80;;;10.50;94.60;;;;;;5069535;28;20932;-46
2022/03/13 12:07:01;;;;;;;4.93;3.77;;;10.50;94.70;;;;;;5066190;28;20466;-47
2022/03/13 12:09:44;;;;;;;5.43;3.07;;;10.60;94.20;;;;;;5070240;28;20890;-48
2022/03/13 12:12:17;;;;;;;3.70;2.70;;;10.70;92.30;;;;;;5068304;28;20461;-46
2022/03/13 12:14:59;;;;;;;3.07;2.57;;;10.90;91.30;;;;;;5067422;28;20500;-48
2022/03/13 12:17:30;;;;;;;3.30;2.60;;;11.00;90.20;;;;;;5070342;28;20500;-48
2022/03/13 12:20:00;;;;;;;2.50;2.30;;;11.10;90.40;;;;;;5069399;28;20870;-47
2022/03/13 12:22:30;;;;;;;2.60;2.33;;;11.10;90.70;;;;;;5050842;28;20528;-45
2022/03/13 12:25:01;;;;;;;2.90;2.47;;;11.00;90.90;;;;;;5067591;28;20461;-48
2022/03/13 12:27:31;;;;;;;2.73;2.47;;;11.00;91.10;;;;;;5070441;28;20427;-47
2022/03/13 12:29:59;;;;;;;2.83;2.50;;;11.00;91.30;;;;;;5067701;28;20445;-48
2022/03/13 12:32:29;;;;;;;2.50;2.30;;;10.90;91.50;;;;;;5069958;28;20813;-47
2022/03/13 12:34:59;;;;;;;2.73;2.40;;;10.90;91.70;;;;;;5068163;28;20426;-50
2022/03/13 12:37:27;;;;;;;2.43;2.23;;;10.90;91.90;;;;;;5055247;28;20447;-48
2022/03/13 12:39:59;;;;;;;4.07;2.70;;;10.80;92.00;;;;;;5069299;28;20462;-47
2022/03/13 12:42:34;;;;;;;3.00;2.60;;;10.80;92.20;;;;;;5069830;28;20535;-47
2022/03/13 12:45:10;;;;;;;3.07;2.40;;;10.80;92.30;;;;;;5067177;28;20449;-47
2022/03/13 12:47:42;;;;;;;3.10;2.80;;;10.80;92.40;;;;;;5069295;28;20504;-46
2022/03/13 12:50:12;;;;;;;3.13;2.83;;;10.80;92.60;;;;;;5068815;28;20542;-44
2022/03/13 12:52:41;;;;;;;4.37;2.33;;;10.70;92.70;;;;;;5065671;28;20462;-46
2022/03/13 12:55:09;;;;;;;4.63;2.33;;;10.80;92.10;;;;;;5067995;28;20820;-47
2022/03/13 12:57:39;;;;;;;2.27;2.07;;;10.80;91.90;;;;;;5067033;28;20934;-47
2022/03/13 13:00:10;;;;;;;4.37;3.13;;;10.90;92.50;;;;;;5059633;28;20450;-47